sensor_id;sensor_type;location;lat;lon;timestamp;P1;durP1;ratioP1;P2;durP2;ratioP2
4389;SDS011;2209;48.982;8.406;2024-01-11T00:01:12;40.97;;;25.20;;
4389;SDS011;2209;48.982;8.406;2024-01-11T00:03:34;32.93;;;22.30;;
4389;SDS011;2209;48.982;8.406;2024-01-11T00:05:56;36.07;;;23.30;;
4389;SDS011;2209;48.982;8.406;2024-01-11T00:08:18;35.10;;;22.27;;
4389;SDS011;2209;48.982;8.406;2024-01-11T00:10:41;39.97;;;23.60;;
4389;SDS011;2209;48.982;8.406;2024-01-11T00:13:03;34.10;;;22.90;;
4389;SDS011;2209;48.982;8.406;2024-01-11T00:15:25;36.20;;;22.60;;
4389;SDS011;2209;48.982;8.406;2024-01-11T00:17:48;38.57;;;23.93;;
4389;SDS011;2209;48.982;8.406;2024-01-11T00:20:11;30.93;;;22.90;;
4389;SDS011;2209;48.982;8.406;2024-01-11T00:22:33;36.17;;;23.07;;
4389;SDS011;2209;48.982;8.406;2024-01-11T00:24:55;33.03;;;22.00;;
4389;SDS011;2209;48.982;8.406;2024-01-11T00:27:17;40.73;;;24.40;;
4389;SDS011;2209;48.982;8.406;2024-01-11T00:29:39;38.23;;;22.77;;
4389;SDS011;2209;48.982;8.406;2024-01-11T00:32:01;37.13;;;22.57;;
4389;SDS011;2209;48.982;8.406;2024-01-11T00:34:25;44.43;;;23.00;;
4389;SDS011;2209;48.982;8.406;2024-01-11T00:36:47;38.20;;;23.93;;
4389;SDS011;2209;48.982;8.406;2024-01-11T00:39:09;31.50;;;21.90;;
4389;SDS011;2209;48.982;8.406;2024-01-11T00:41:32;37.93;;;24.73;;
4389;SDS011;2209;48.982;8.406;2024-01-11T00:43:54;35.83;;;24.33;;
4389;SDS011;2209;48.982;8.406;2024-01-11T00:46:16;39.17;;;25.23;;
4389;SDS011;2209;48.982;8.406;2024-01-11T00:48:38;42.00;;;23.90;;
4389;SDS011;2209;48.982;8.406;2024-01-11T00:51:02;38.67;;;22.53;;
4389;SDS011;2209;48.982;8.406;2024-01-11T00:53:25;42.00;;;26.60;;
4389;SDS011;2209;48.982;8.406;2024-01-11T00:55:50;37.43;;;23.80;;
4389;SDS011;2209;48.982;8.406;2024-01-11T00:58:12;34.23;;;22.13;;
4389;SDS011;2209;48.982;8.406;2024-01-11T01:00:34;34.50;;;23.07;;
4389;SDS011;2209;48.982;8.406;2024-01-11T01:02:57;37.70;;;22.70;;
4389;SDS011;2209;48.982;8.406;2024-01-11T01:05:19;35.40;;;23.23;;
4389;SDS011;2209;48.982;8.406;2024-01-11T01:07:42;33.80;;;22.60;;
4389;SDS011;2209;48.982;8.406;2024-01-11T01:10:06;39.57;;;23.17;;
4389;SDS011;2209;48.982;8.406;2024-01-11T01:12:28;36.93;;;24.27;;
4389;SDS011;2209;48.982;8.406;2024-01-11T01:14:50;36.00;;;23.30;;
4389;SDS011;2209;48.982;8.406;2024-01-11T01:17:12;37.43;;;22.53;;
4389;SDS011;2209;48.982;8.406;2024-01-11T01:19:34;38.03;;;23.47;;
4389;SDS011;2209;48.982;8.406;2024-01-11T01:21:57;36.37;;;23.27;;
4389;SDS011;2209;48.982;8.406;2024-01-11T01:24:20;34.30;;;22.80;;
4389;SDS011;2209;48.982;8.406;2024-01-11T01:26:42;36.10;;;22.10;;
4389;SDS011;2209;48.982;8.406;2024-01-11T01:29:04;34.40;;;24.20;;
4389;SDS011;2209;48.982;8.406;2024-01-11T01:31:26;35.63;;;24.00;;
4389;SDS011;2209;48.982;8.406;2024-01-11T01:33:48;39.37;;;25.97;;
4389;SDS011;2209;48.982;8.406;2024-01-11T01:36:10;36.37;;;23.60;;
4389;SDS011;2209;48.982;8.406;2024-01-11T01:38:33;38.90;;;23.20;;
4389;SDS011;2209;48.982;8.406;2024-01-11T01:40:57;33.83;;;22.53;;
4389;SDS011;2209;48.982;8.406;2024-01-11T01:43:19;40.30;;;24.00;;
4389;SDS011;2209;48.982;8.406;2024-01-11T01:45:41;38.30;;;23.40;;
4389;SDS011;2209;48.982;8.406;2024-01-11T01:48:03;35.90;;;23.27;;
4389;SDS011;2209;48.982;8.406;2024-01-11T01:50:25;34.57;;;24.70;;
4389;SDS011;2209;48.982;8.406;2024-01-11T01:52:48;40.00;;;23.10;;
4389;SDS011;2209;48.982;8.406;2024-01-11T01:55:12;33.57;;;22.63;;
4389;SDS011;2209;48.982;8.406;2024-01-11T01:57:37;39.93;;;23.37;;
4389;SDS011;2209;48.982;8.406;2024-01-11T02:00:02;38.17;;;22.60;;
4389;SDS011;2209;48.982;8.406;2024-01-11T02:02:25;36.80;;;23.97;;
4389;SDS011;2209;48.982;8.406;2024-01-11T02:04:50;36.57;;;23.47;;
4389;SDS011;2209;48.982;8.406;2024-01-11T02:07:12;35.73;;;23.10;;
4389;SDS011;2209;48.982;8.406;2024-01-11T02:09:35;36.70;;;23.93;;
4389;SDS011;2209;48.982;8.406;2024-01-11T02:11:59;38.03;;;22.30;;
4389;SDS011;2209;48.982;8.406;2024-01-11T02:14:23;39.20;;;24.90;;
4389;SDS011;2209;48.982;8.406;2024-01-11T02:16:46;35.90;;;22.83;;
4389;SDS011;2209;48.982;8.406;2024-01-11T02:19:08;33.73;;;23.63;;
4389;SDS011;2209;48.982;8.406;2024-01-11T02:21:35;34.27;;;23.00;;
4389;SDS011;2209;48.982;8.406;2024-01-11T02:24:02;35.10;;;22.07;;
4389;SDS011;2209;48.982;8.406;2024-01-11T02:26:25;39.83;;;23.90;;
4389;SDS011;2209;48.982;8.406;2024-01-11T02:28:47;35.20;;;23.20;;
4389;SDS011;2209;48.982;8.406;2024-01-11T02:31:09;33.40;;;22.80;;
4389;SDS011;2209;48.982;8.406;2024-01-11T02:33:32;40.43;;;23.90;;
4389;SDS011;2209;48.982;8.406;2024-01-11T02:35:54;35.90;;;22.43;;
4389;SDS011;2209;48.982;8.406;2024-01-11T02:38:17;37.83;;;23.13;;
4389;SDS011;2209;48.982;8.406;2024-01-11T02:40:40;34.40;;;21.50;;
4389;SDS011;2209;48.982;8.406;2024-01-11T02:43:07;38.70;;;22.93;;
4389;SDS011;2209;48.982;8.406;2024-01-11T02:45:30;36.93;;;22.60;;
4389;SDS011;2209;48.982;8.406;2024-01-11T02:47:52;33.40;;;22.70;;
4389;SDS011;2209;48.982;8.406;2024-01-11T02:50:14;36.93;;;23.13;;
4389;SDS011;2209;48.982;8.406;2024-01-11T02:52:36;38.30;;;24.27;;
4389;SDS011;2209;48.982;8.406;2024-01-11T02:54:58;34.97;;;22.07;;
4389;SDS011;2209;48.982;8.406;2024-01-11T02:57:21;37.20;;;23.17;;
4389;SDS011;2209;48.982;8.406;2024-01-11T02:59:43;36.97;;;23.47;;
4389;SDS011;2209;48.982;8.406;2024-01-11T03:02:06;35.73;;;24.30;;
4389;SDS011;2209;48.982;8.406;2024-01-11T03:04:28;35.60;;;22.93;;
4389;SDS011;2209;48.982;8.406;2024-01-11T03:06:50;37.13;;;22.97;;
4389;SDS011;2209;48.982;8.406;2024-01-11T03:09:11;35.17;;;22.70;;
4389;SDS011;2209;48.982;8.406;2024-01-11T03:11:33;40.57;;;24.00;;
4389;SDS011;2209;48.982;8.406;2024-01-11T03:13:57;38.53;;;23.40;;
4389;SDS011;2209;48.982;8.406;2024-01-11T03:16:19;37.50;;;23.37;;
4389;SDS011;2209;48.982;8.406;2024-01-11T03:18:41;36.53;;;22.60;;
4389;SDS011;2209;48.982;8.406;2024-01-11T03:21:03;39.90;;;24.33;;
4389;SDS011;2209;48.982;8.406;2024-01-11T03:23:25;35.77;;;23.80;;
4389;SDS011;2209;48.982;8.406;2024-01-11T03:25:47;34.23;;;21.37;;
4389;SDS011;2209;48.982;8.406;2024-01-11T03:28:10;44.13;;;24.13;;
4389;SDS011;2209;48.982;8.406;2024-01-11T03:30:33;36.50;;;23.23;;
4389;SDS011;2209;48.982;8.406;2024-01-11T03:32:56;40.50;;;23.30;;
4389;SDS011;2209;48.982;8.406;2024-01-11T03:35:18;37.63;;;24.30;;
4389;SDS011;2209;48.982;8.406;2024-01-11T03:37:40;39.10;;;25.67;;
4389;SDS011;2209;48.982;8.406;2024-01-11T03:40:03;36.10;;;24.40;;
4389;SDS011;2209;48.982;8.406;2024-01-11T03:42:26;34.77;;;24.37;;
4389;SDS011;2209;48.982;8.406;2024-01-11T03:44:48;37.43;;;23.47;;
4389;SDS011;2209;48.982;8.406;2024-01-11T03:47:11;39.57;;;25.30;;
4389;SDS011;2209;48.982;8.406;2024-01-11T03:49:33;36.27;;;23.17;;
4389;SDS011;2209;48.982;8.406;2024-01-11T03:51:55;35.80;;;23.00;;
4389;SDS011;2209;48.982;8.406;2024-01-11T03:54:17;39.10;;;22.77;;
4389;SDS011;2209;48.982;8.406;2024-01-11T03:56:39;36.13;;;22.30;;
4389;SDS011;2209;48.982;8.406;2024-01-11T03:59:01;34.00;;;22.40;;
4389;SDS011;2209;48.982;8.406;2024-01-11T04:01:23;39.50;;;22.60;;
4389;SDS011;2209;48.982;8.406;2024-01-11T04:03:47;35.30;;;23.00;;
4389;SDS011;2209;48.982;8.406;2024-01-11T04:06:16;35.27;;;23.27;;
4389;SDS011;2209;48.982;8.406;2024-01-11T04:08:41;38.53;;;24.63;;
4389;SDS011;2209;48.982;8.406;2024-01-11T04:11:03;36.97;;;23.23;;
4389;SDS011;2209;48.982;8.406;2024-01-11T04:13:25;35.90;;;22.50;;
4389;SDS011;2209;48.982;8.406;2024-01-11T04:15:47;35.10;;;23.43;;
4389;SDS011;2209;48.982;8.406;2024-01-11T04:18:09;38.40;;;22.77;;
4389;SDS011;2209;48.982;8.406;2024-01-11T04:20:33;36.03;;;23.37;;
4389;SDS011;2209;48.982;8.406;2024-01-11T04:22:55;38.13;;;23.30;;
4389;SDS011;2209;48.982;8.406;2024-01-11T04:25:17;37.27;;;23.87;;
4389;SDS011;2209;48.982;8.406;2024-01-11T04:27:40;36.63;;;22.67;;
4389;SDS011;2209;48.982;8.406;2024-01-11T04:30:03;32.60;;;22.57;;
4389;SDS011;2209;48.982;8.406;2024-01-11T04:32:26;37.77;;;22.93;;
4389;SDS011;2209;48.982;8.406;2024-01-11T04:34:48;35.43;;;23.17;;
4389;SDS011;2209;48.982;8.406;2024-01-11T04:37:11;38.10;;;22.90;;
4389;SDS011;2209;48.982;8.406;2024-01-11T04:39:33;37.23;;;22.90;;
4389;SDS011;2209;48.982;8.406;2024-01-11T04:41:54;36.70;;;23.07;;
4389;SDS011;2209;48.982;8.406;2024-01-11T04:44:16;35.10;;;23.13;;
4389;SDS011;2209;48.982;8.406;2024-01-11T04:46:39;36.17;;;22.50;;
4389;SDS011;2209;48.982;8.406;2024-01-11T04:49:01;37.17;;;23.70;;
4389;SDS011;2209;48.982;8.406;2024-01-11T04:51:23;33.73;;;21.50;;
4389;SDS011;2209;48.982;8.406;2024-01-11T04:53:47;36.50;;;24.13;;
4389;SDS011;2209;48.982;8.406;2024-01-11T04:56:09;31.83;;;21.10;;
4389;SDS011;2209;48.982;8.406;2024-01-11T04:58:32;36.37;;;23.30;;
4389;SDS011;2209;48.982;8.406;2024-01-11T05:00:54;38.50;;;23.80;;
4389;SDS011;2209;48.982;8.406;2024-01-11T05:03:17;43.93;;;23.20;;
4389;SDS011;2209;48.982;8.406;2024-01-11T05:05:39;40.97;;;24.47;;
4389;SDS011;2209;48.982;8.406;2024-01-11T05:08:01;34.50;;;21.90;;
4389;SDS011;2209;48.982;8.406;2024-01-11T05:10:24;35.73;;;22.27;;
4389;SDS011;2209;48.982;8.406;2024-01-11T05:12:46;35.73;;;22.77;;
4389;SDS011;2209;48.982;8.406;2024-01-11T05:15:08;36.00;;;23.97;;
4389;SDS011;2209;48.982;8.406;2024-01-11T05:17:31;37.40;;;24.07;;
4389;SDS011;2209;48.982;8.406;2024-01-11T05:19:53;34.70;;;23.60;;
4389;SDS011;2209;48.982;8.406;2024-01-11T05:22:15;33.53;;;22.47;;
4389;SDS011;2209;48.982;8.406;2024-01-11T05:24:38;39.17;;;24.30;;
4389;SDS011;2209;48.982;8.406;2024-01-11T05:27:00;36.43;;;24.07;;
4389;SDS011;2209;48.982;8.406;2024-01-11T05:29:22;34.43;;;23.10;;
4389;SDS011;2209;48.982;8.406;2024-01-11T05:31:44;36.20;;;24.23;;
4389;SDS011;2209;48.982;8.406;2024-01-11T05:34:06;40.30;;;25.43;;
4389;SDS011;2209;48.982;8.406;2024-01-11T05:36:29;35.30;;;24.30;;
4389;SDS011;2209;48.982;8.406;2024-01-11T05:38:51;37.60;;;23.10;;
4389;SDS011;2209;48.982;8.406;2024-01-11T05:41:13;34.67;;;22.07;;
4389;SDS011;2209;48.982;8.406;2024-01-11T05:43:36;41.07;;;23.17;;
4389;SDS011;2209;48.982;8.406;2024-01-11T05:45:59;32.93;;;23.33;;
4389;SDS011;2209;48.982;8.406;2024-01-11T05:48:22;34.27;;;23.97;;
4389;SDS011;2209;48.982;8.406;2024-01-11T05:50:44;34.00;;;23.77;;
4389;SDS011;2209;48.982;8.406;2024-01-11T05:53:07;36.07;;;22.70;;
4389;SDS011;2209;48.982;8.406;2024-01-11T05:55:29;35.10;;;24.33;;
4389;SDS011;2209;48.982;8.406;2024-01-11T05:57:51;36.50;;;24.90;;
4389;SDS011;2209;48.982;8.406;2024-01-11T06:00:15;35.23;;;23.47;;
4389;SDS011;2209;48.982;8.406;2024-01-11T06:02:37;37.57;;;23.97;;
4389;SDS011;2209;48.982;8.406;2024-01-11T06:04:59;36.13;;;23.37;;
4389;SDS011;2209;48.982;8.406;2024-01-11T06:07:21;36.70;;;24.33;;
4389;SDS011;2209;48.982;8.406;2024-01-11T06:09:44;33.60;;;22.77;;
4389;SDS011;2209;48.982;8.406;2024-01-11T06:12:06;34.40;;;24.20;;
4389;SDS011;2209;48.982;8.406;2024-01-11T06:14:29;37.97;;;25.10;;
4389;SDS011;2209;48.982;8.406;2024-01-11T06:16:52;32.13;;;23.30;;
4389;SDS011;2209;48.982;8.406;2024-01-11T06:19:14;38.23;;;24.80;;
4389;SDS011;2209;48.982;8.406;2024-01-11T06:21:36;40.77;;;24.77;;
4389;SDS011;2209;48.982;8.406;2024-01-11T06:23:58;31.47;;;23.60;;
4389;SDS011;2209;48.982;8.406;2024-01-11T06:26:21;33.90;;;23.67;;
4389;SDS011;2209;48.982;8.406;2024-01-11T06:28:43;37.63;;;24.63;;
4389;SDS011;2209;48.982;8.406;2024-01-11T06:31:05;41.93;;;25.27;;
4389;SDS011;2209;48.982;8.406;2024-01-11T06:33:29;35.27;;;22.77;;
4389;SDS011;2209;48.982;8.406;2024-01-11T06:35:53;36.90;;;23.57;;
4389;SDS011;2209;48.982;8.406;2024-01-11T06:38:16;36.93;;;23.80;;
4389;SDS011;2209;48.982;8.406;2024-01-11T06:40:38;34.50;;;24.07;;
4389;SDS011;2209;48.982;8.406;2024-01-11T06:43:00;35.83;;;24.57;;
4389;SDS011;2209;48.982;8.406;2024-01-11T06:45:23;33.87;;;23.77;;
4389;SDS011;2209;48.982;8.406;2024-01-11T06:47:45;40.70;;;26.50;;
4389;SDS011;2209;48.982;8.406;2024-01-11T06:50:09;37.80;;;24.50;;
4389;SDS011;2209;48.982;8.406;2024-01-11T06:52:33;36.17;;;25.27;;
4389;SDS011;2209;48.982;8.406;2024-01-11T06:54:55;36.00;;;25.20;;
4389;SDS011;2209;48.982;8.406;2024-01-11T06:57:20;34.47;;;22.90;;
4389;SDS011;2209;48.982;8.406;2024-01-11T06:59:49;39.80;;;24.37;;
4389;SDS011;2209;48.982;8.406;2024-01-11T07:02:11;36.83;;;26.23;;
4389;SDS011;2209;48.982;8.406;2024-01-11T07:04:33;39.90;;;24.73;;
4389;SDS011;2209;48.982;8.406;2024-01-11T07:06:56;39.80;;;24.17;;
4389;SDS011;2209;48.982;8.406;2024-01-11T07:09:18;39.20;;;25.60;;
4389;SDS011;2209;48.982;8.406;2024-01-11T07:11:40;33.50;;;22.90;;
4389;SDS011;2209;48.982;8.406;2024-01-11T07:14:03;39.30;;;22.70;;
4389;SDS011;2209;48.982;8.406;2024-01-11T07:16:25;34.57;;;21.90;;
4389;SDS011;2209;48.982;8.406;2024-01-11T07:18:47;35.07;;;22.70;;
4389;SDS011;2209;48.982;8.406;2024-01-11T07:21:09;32.80;;;23.97;;
4389;SDS011;2209;48.982;8.406;2024-01-11T07:23:33;36.50;;;23.40;;
4389;SDS011;2209;48.982;8.406;2024-01-11T07:25:55;34.43;;;22.70;;
4389;SDS011;2209;48.982;8.406;2024-01-11T07:28:17;37.83;;;24.53;;
4389;SDS011;2209;48.982;8.406;2024-01-11T07:30:40;39.27;;;23.80;;
4389;SDS011;2209;48.982;8.406;2024-01-11T07:33:03;32.90;;;23.47;;
4389;SDS011;2209;48.982;8.406;2024-01-11T07:35:25;34.00;;;23.17;;
4389;SDS011;2209;48.982;8.406;2024-01-11T07:37:51;33.50;;;21.87;;
4389;SDS011;2209;48.982;8.406;2024-01-11T07:40:15;37.43;;;23.77;;
4389;SDS011;2209;48.982;8.406;2024-01-11T07:42:37;35.73;;;22.23;;
4389;SDS011;2209;48.982;8.406;2024-01-11T07:44:59;36.40;;;23.63;;
4389;SDS011;2209;48.982;8.406;2024-01-11T07:47:22;35.43;;;22.77;;
4389;SDS011;2209;48.982;8.406;2024-01-11T07:49:44;36.63;;;22.47;;
4389;SDS011;2209;48.982;8.406;2024-01-11T07:52:06;35.77;;;21.67;;
4389;SDS011;2209;48.982;8.406;2024-01-11T07:54:30;40.10;;;24.07;;
4389;SDS011;2209;48.982;8.406;2024-01-11T07:56:53;33.57;;;21.67;;
4389;SDS011;2209;48.982;8.406;2024-01-11T07:59:16;32.97;;;21.20;;
4389;SDS011;2209;48.982;8.406;2024-01-11T08:01:38;31.63;;;20.13;;
4389;SDS011;2209;48.982;8.406;2024-01-11T08:04:00;30.03;;;20.80;;
4389;SDS011;2209;48.982;8.406;2024-01-11T08:06:24;37.60;;;22.13;;
4389;SDS011;2209;48.982;8.406;2024-01-11T08:08:46;31.50;;;22.00;;
4389;SDS011;2209;48.982;8.406;2024-01-11T08:11:11;44.57;;;23.40;;
4389;SDS011;2209;48.982;8.406;2024-01-11T08:13:35;36.70;;;22.63;;
4389;SDS011;2209;48.982;8.406;2024-01-11T08:15:58;33.67;;;23.20;;
4389;SDS011;2209;48.982;8.406;2024-01-11T08:18:20;36.87;;;26.10;;
4389;SDS011;2209;48.982;8.406;2024-01-11T08:20:42;39.30;;;24.27;;
4389;SDS011;2209;48.982;8.406;2024-01-11T08:23:04;37.30;;;24.07;;
4389;SDS011;2209;48.982;8.406;2024-01-11T08:25:27;34.30;;;23.53;;
4389;SDS011;2209;48.982;8.406;2024-01-11T08:27:50;41.23;;;25.33;;
4389;SDS011;2209;48.982;8.406;2024-01-11T08:30:14;39.93;;;24.83;;
4389;SDS011;2209;48.982;8.406;2024-01-11T08:32:37;33.60;;;22.10;;
4389;SDS011;2209;48.982;8.406;2024-01-11T08:34:59;40.37;;;23.93;;
4389;SDS011;2209;48.982;8.406;2024-01-11T08:37:22;35.63;;;23.13;;
4389;SDS011;2209;48.982;8.406;2024-01-11T08:39:44;33.10;;;22.33;;
4389;SDS011;2209;48.982;8.406;2024-01-11T08:42:07;32.80;;;23.57;;
4389;SDS011;2209;48.982;8.406;2024-01-11T08:44:29;35.53;;;22.80;;
4389;SDS011;2209;48.982;8.406;2024-01-11T08:46:55;36.87;;;24.30;;
4389;SDS011;2209;48.982;8.406;2024-01-11T08:49:19;39.00;;;24.50;;
4389;SDS011;2209;48.982;8.406;2024-01-11T08:51:41;36.10;;;24.83;;
4389;SDS011;2209;48.982;8.406;2024-01-11T08:54:09;37.63;;;24.30;;
4389;SDS011;2209;48.982;8.406;2024-01-11T08:56:32;37.20;;;24.57;;
4389;SDS011;2209;48.982;8.406;2024-01-11T08:58:55;38.23;;;23.73;;
4389;SDS011;2209;48.982;8.406;2024-01-11T09:01:19;37.20;;;24.13;;
4389;SDS011;2209;48.982;8.406;2024-01-11T09:03:45;37.37;;;24.00;;
4389;SDS011;2209;48.982;8.406;2024-01-11T09:06:08;37.83;;;25.00;;
4389;SDS011;2209;48.982;8.406;2024-01-11T09:08:33;37.80;;;24.90;;
4389;SDS011;2209;48.982;8.406;2024-01-11T09:10:57;40.27;;;26.33;;
4389;SDS011;2209;48.982;8.406;2024-01-11T09:13:20;37.90;;;25.90;;
4389;SDS011;2209;48.982;8.406;2024-01-11T09:15:45;40.20;;;24.90;;
4389;SDS011;2209;48.982;8.406;2024-01-11T09:18:10;40.07;;;25.53;;
4389;SDS011;2209;48.982;8.406;2024-01-11T09:20:36;43.70;;;25.43;;
4389;SDS011;2209;48.982;8.406;2024-01-11T09:23:01;39.30;;;24.70;;
4389;SDS011;2209;48.982;8.406;2024-01-11T09:25:26;38.93;;;25.67;;
4389;SDS011;2209;48.982;8.406;2024-01-11T10:30:32;44.50;;;28.47;;
4389;SDS011;2209;48.982;8.406;2024-01-11T10:32:54;46.47;;;31.00;;
4389;SDS011;2209;48.982;8.406;2024-01-11T10:35:19;46.13;;;30.73;;
4389;SDS011;2209;48.982;8.406;2024-01-11T10:37:41;43.37;;;27.67;;
4389;SDS011;2209;48.982;8.406;2024-01-11T10:40:06;43.60;;;27.90;;
4389;SDS011;2209;48.982;8.406;2024-01-11T10:42:31;42.83;;;28.60;;
4389;SDS011;2209;48.982;8.406;2024-01-11T10:44:54;40.50;;;27.20;;
4389;SDS011;2209;48.982;8.406;2024-01-11T10:47:19;44.33;;;27.00;;
4389;SDS011;2209;48.982;8.406;2024-01-11T10:49:42;43.40;;;28.00;;
4389;SDS011;2209;48.982;8.406;2024-01-11T10:52:07;46.67;;;31.07;;
4389;SDS011;2209;48.982;8.406;2024-01-11T10:54:32;52.23;;;29.70;;
4389;SDS011;2209;48.982;8.406;2024-01-11T10:56:55;49.23;;;29.50;;
4389;SDS011;2209;48.982;8.406;2024-01-11T10:59:19;44.47;;;28.70;;
4389;SDS011;2209;48.982;8.406;2024-01-11T11:01:45;47.97;;;28.47;;
4389;SDS011;2209;48.982;8.406;2024-01-11T11:04:09;46.30;;;29.10;;
4389;SDS011;2209;48.982;8.406;2024-01-11T11:06:32;55.60;;;31.60;;
4389;SDS011;2209;48.982;8.406;2024-01-11T11:08:56;45.93;;;28.10;;
4389;SDS011;2209;48.982;8.406;2024-01-11T11:11:19;43.13;;;28.20;;
4389;SDS011;2209;48.982;8.406;2024-01-11T11:13:43;52.60;;;30.60;;
4389;SDS011;2209;48.982;8.406;2024-01-11T11:16:09;44.27;;;28.63;;
4389;SDS011;2209;48.982;8.406;2024-01-11T11:18:31;47.03;;;26.60;;
4389;SDS011;2209;48.982;8.406;2024-01-11T11:20:57;52.30;;;29.47;;
4389;SDS011;2209;48.982;8.406;2024-01-11T11:23:19;42.00;;;27.10;;
4389;SDS011;2209;48.982;8.406;2024-01-11T11:25:41;50.77;;;30.73;;
4389;SDS011;2209;48.982;8.406;2024-01-11T11:28:04;47.30;;;30.17;;
4389;SDS011;2209;48.982;8.406;2024-01-11T11:30:26;48.30;;;28.07;;
4389;SDS011;2209;48.982;8.406;2024-01-11T11:32:48;49.23;;;30.07;;
4389;SDS011;2209;48.982;8.406;2024-01-11T11:35:11;47.40;;;29.97;;
4389;SDS011;2209;48.982;8.406;2024-01-11T11:37:34;51.37;;;30.07;;
4389;SDS011;2209;48.982;8.406;2024-01-11T11:39:58;50.10;;;31.00;;
4389;SDS011;2209;48.982;8.406;2024-01-11T11:42:21;47.83;;;29.87;;
4389;SDS011;2209;48.982;8.406;2024-01-11T11:44:48;46.93;;;29.60;;
4389;SDS011;2209;48.982;8.406;2024-01-11T11:47:18;46.83;;;29.63;;
4389;SDS011;2209;48.982;8.406;2024-01-11T11:52:26;46.77;;;28.87;;
4389;SDS011;2209;48.982;8.406;2024-01-11T11:54:50;40.93;;;27.07;;
4389;SDS011;2209;48.982;8.406;2024-01-11T11:57:16;46.47;;;27.70;;
4389;SDS011;2209;48.982;8.406;2024-01-11T11:59:38;45.13;;;29.40;;
4389;SDS011;2209;48.982;8.406;2024-01-11T12:02:01;45.20;;;28.37;;
4389;SDS011;2209;48.982;8.406;2024-01-11T12:04:23;44.77;;;27.17;;
4389;SDS011;2209;48.982;8.406;2024-01-11T12:06:45;44.13;;;29.80;;
4389;SDS011;2209;48.982;8.406;2024-01-11T12:09:08;44.43;;;28.30;;
4389;SDS011;2209;48.982;8.406;2024-01-11T12:11:31;46.03;;;29.13;;
4389;SDS011;2209;48.982;8.406;2024-01-11T12:13:54;49.90;;;28.67;;
4389;SDS011;2209;48.982;8.406;2024-01-11T12:16:17;47.07;;;28.50;;
4389;SDS011;2209;48.982;8.406;2024-01-11T12:18:39;43.37;;;29.13;;
4389;SDS011;2209;48.982;8.406;2024-01-11T12:21:02;50.20;;;29.17;;
4389;SDS011;2209;48.982;8.406;2024-01-11T12:23:24;43.20;;;28.63;;
4389;SDS011;2209;48.982;8.406;2024-01-11T12:25:50;47.37;;;29.87;;
4389;SDS011;2209;48.982;8.406;2024-01-11T12:28:13;45.67;;;28.50;;
4389;SDS011;2209;48.982;8.406;2024-01-11T12:30:35;43.97;;;28.50;;
4389;SDS011;2209;48.982;8.406;2024-01-11T12:32:58;47.90;;;29.90;;
4389;SDS011;2209;48.982;8.406;2024-01-11T12:35:22;46.30;;;31.20;;
4389;SDS011;2209;48.982;8.406;2024-01-11T12:37:52;41.97;;;28.60;;
4389;SDS011;2209;48.982;8.406;2024-01-11T12:40:14;47.27;;;29.80;;
4389;SDS011;2209;48.982;8.406;2024-01-11T12:42:36;44.60;;;28.70;;
4389;SDS011;2209;48.982;8.406;2024-01-11T12:45:00;44.03;;;28.10;;
4389;SDS011;2209;48.982;8.406;2024-01-11T12:47:23;50.03;;;30.57;;
4389;SDS011;2209;48.982;8.406;2024-01-11T12:49:45;50.57;;;29.30;;
4389;SDS011;2209;48.982;8.406;2024-01-11T12:52:07;44.70;;;27.63;;
4389;SDS011;2209;48.982;8.406;2024-01-11T12:54:31;44.87;;;29.00;;
4389;SDS011;2209;48.982;8.406;2024-01-11T12:56:54;46.13;;;28.67;;
4389;SDS011;2209;48.982;8.406;2024-01-11T12:59:16;48.30;;;28.40;;
4389;SDS011;2209;48.982;8.406;2024-01-11T13:01:39;43.37;;;27.60;;
4389;SDS011;2209;48.982;8.406;2024-01-11T13:04:01;46.40;;;27.23;;
4389;SDS011;2209;48.982;8.406;2024-01-11T13:06:24;44.90;;;27.27;;
4389;SDS011;2209;48.982;8.406;2024-01-11T13:08:46;40.20;;;27.27;;
4389;SDS011;2209;48.982;8.406;2024-01-11T13:11:08;45.60;;;29.40;;
4389;SDS011;2209;48.982;8.406;2024-01-11T13:13:34;40.77;;;28.17;;
4389;SDS011;2209;48.982;8.406;2024-01-11T13:15:56;39.60;;;26.90;;
4389;SDS011;2209;48.982;8.406;2024-01-11T13:18:20;43.13;;;28.07;;
4389;SDS011;2209;48.982;8.406;2024-01-11T13:20:42;39.80;;;27.00;;
4389;SDS011;2209;48.982;8.406;2024-01-11T13:23:13;41.20;;;26.40;;
4389;SDS011;2209;48.982;8.406;2024-01-11T13:25:35;45.37;;;28.23;;
4389;SDS011;2209;48.982;8.406;2024-01-11T13:27:57;45.33;;;28.30;;
4389;SDS011;2209;48.982;8.406;2024-01-11T13:30:20;40.33;;;25.93;;
4389;SDS011;2209;48.982;8.406;2024-01-11T13:32:42;41.00;;;27.87;;
4389;SDS011;2209;48.982;8.406;2024-01-11T13:35:06;41.50;;;27.30;;
4389;SDS011;2209;48.982;8.406;2024-01-11T13:37:27;40.53;;;26.80;;
4389;SDS011;2209;48.982;8.406;2024-01-11T13:39:49;42.87;;;26.57;;
4389;SDS011;2209;48.982;8.406;2024-01-11T13:42:11;44.87;;;27.90;;
4389;SDS011;2209;48.982;8.406;2024-01-11T13:44:33;42.53;;;26.73;;
4389;SDS011;2209;48.982;8.406;2024-01-11T13:46:56;41.17;;;26.80;;
4389;SDS011;2209;48.982;8.406;2024-01-11T13:49:18;40.43;;;27.10;;
4389;SDS011;2209;48.982;8.406;2024-01-11T13:51:44;39.80;;;27.73;;
4389;SDS011;2209;48.982;8.406;2024-01-11T13:54:08;43.03;;;25.80;;
4389;SDS011;2209;48.982;8.406;2024-01-11T13:56:30;45.10;;;27.73;;
4389;SDS011;2209;48.982;8.406;2024-01-11T13:58:52;44.50;;;27.17;;
4389;SDS011;2209;48.982;8.406;2024-01-11T14:01:14;44.30;;;26.67;;
4389;SDS011;2209;48.982;8.406;2024-01-11T14:03:36;36.67;;;27.20;;
4389;SDS011;2209;48.982;8.406;2024-01-11T14:05:58;42.27;;;28.30;;
4389;SDS011;2209;48.982;8.406;2024-01-11T14:08:22;39.43;;;27.00;;
4389;SDS011;2209;48.982;8.406;2024-01-11T14:10:44;42.47;;;27.70;;
4389;SDS011;2209;48.982;8.406;2024-01-11T14:13:06;39.57;;;28.30;;
4389;SDS011;2209;48.982;8.406;2024-01-11T14:15:28;40.90;;;27.17;;
4389;SDS011;2209;48.982;8.406;2024-01-11T14:17:51;42.43;;;26.70;;
4389;SDS011;2209;48.982;8.406;2024-01-11T14:20:13;41.40;;;27.90;;
4389;SDS011;2209;48.982;8.406;2024-01-11T14:22:35;43.37;;;26.27;;
4389;SDS011;2209;48.982;8.406;2024-01-11T14:24:59;43.00;;;28.10;;
4389;SDS011;2209;48.982;8.406;2024-01-11T14:27:21;43.83;;;27.20;;
4389;SDS011;2209;48.982;8.406;2024-01-11T14:29:44;39.73;;;26.47;;
4389;SDS011;2209;48.982;8.406;2024-01-11T14:32:06;41.73;;;27.50;;
4389;SDS011;2209;48.982;8.406;2024-01-11T14:34:28;43.27;;;25.47;;
4389;SDS011;2209;48.982;8.406;2024-01-11T14:36:50;42.03;;;28.40;;
4389;SDS011;2209;48.982;8.406;2024-01-11T14:39:12;48.17;;;26.67;;
4389;SDS011;2209;48.982;8.406;2024-01-11T14:41:36;39.20;;;26.90;;
4389;SDS011;2209;48.982;8.406;2024-01-11T14:43:58;41.30;;;25.83;;
4389;SDS011;2209;48.982;8.406;2024-01-11T14:46:21;44.53;;;27.70;;
4389;SDS011;2209;48.982;8.406;2024-01-11T14:48:43;42.43;;;28.10;;
4389;SDS011;2209;48.982;8.406;2024-01-11T14:51:06;46.33;;;27.70;;
4389;SDS011;2209;48.982;8.406;2024-01-11T14:53:28;43.47;;;28.17;;
4389;SDS011;2209;48.982;8.406;2024-01-11T14:55:50;44.10;;;28.47;;
4389;SDS011;2209;48.982;8.406;2024-01-11T14:58:14;38.93;;;27.27;;
4389;SDS011;2209;48.982;8.406;2024-01-11T15:00:37;49.83;;;29.47;;
4389;SDS011;2209;48.982;8.406;2024-01-11T15:02:59;44.30;;;29.73;;
4389;SDS011;2209;48.982;8.406;2024-01-11T15:05:21;44.87;;;30.30;;
4389;SDS011;2209;48.982;8.406;2024-01-11T15:07:43;48.37;;;29.47;;
4389;SDS011;2209;48.982;8.406;2024-01-11T15:10:05;54.63;;;30.07;;
4389;SDS011;2209;48.982;8.406;2024-01-11T15:12:28;45.37;;;30.33;;
4389;SDS011;2209;48.982;8.406;2024-01-11T15:14:51;49.93;;;30.73;;
4389;SDS011;2209;48.982;8.406;2024-01-11T15:17:13;43.23;;;29.57;;
4389;SDS011;2209;48.982;8.406;2024-01-11T15:19:35;50.93;;;31.40;;
4389;SDS011;2209;48.982;8.406;2024-01-11T15:21:57;41.67;;;29.10;;
4389;SDS011;2209;48.982;8.406;2024-01-11T15:24:19;47.67;;;31.70;;
4389;SDS011;2209;48.982;8.406;2024-01-11T15:26:41;50.37;;;30.27;;